createdAt,value
2023-03-05T00:01:11.471Z,3.10
2023-03-05T00:03:38.384Z,3.10
2023-03-05T00:06:05.683Z,3.10
2023-03-05T00:08:33.081Z,3.10
2023-03-05T00:11:02.809Z,3.10
2023-03-05T00:13:30.344Z,3.10
2023-03-05T00:15:57.218Z,3.10
2023-03-05T00:18:24.636Z,3.10
2023-03-05T00:20:51.453Z,3.10
2023-03-05T00:23:18.299Z,3.10
2023-03-05T00:25:46.534Z,3.10
2023-03-05T00:28:13.716Z,3.10
2023-03-05T00:30:40.798Z,3.10
2023-03-05T00:33:08.964Z,3.10
2023-03-05T00:35:43.759Z,3.10
2023-03-05T00:38:11.198Z,3.10
2023-03-05T00:40:39.227Z,3.10
2023-03-05T00:43:07.175Z,3.10
2023-03-05T00:45:34.537Z,3.10
2023-03-05T00:48:01.537Z,3.10
2023-03-05T00:50:28.853Z,3.10
2023-03-05T00:52:55.796Z,3.10
2023-03-05T00:55:22.564Z,3.10
2023-03-05T00:57:49.624Z,3.10
2023-03-05T01:00:17.634Z,3.10
2023-03-05T01:02:44.456Z,3.10
2023-03-05T01:05:12.779Z,3.10
2023-03-05T01:07:39.847Z,3.10
2023-03-05T01:10:08.449Z,3.10
2023-03-05T01:12:35.425Z,3.10
2023-03-05T01:15:02.785Z,3.10
2023-03-05T01:17:29.779Z,3.10
2023-03-05T01:19:56.544Z,3.10
2023-03-05T01:22:23.454Z,3.10
2023-03-05T01:24:50.243Z,3.10
2023-03-05T01:27:17.114Z,3.10
2023-03-05T01:29:43.975Z,3.10
2023-03-05T01:32:10.814Z,3.10
2023-03-05T01:34:37.872Z,3.10
2023-03-05T01:37:04.995Z,3.10
2023-03-05T01:39:31.807Z,3.10
2023-03-05T01:41:58.609Z,3.10
2023-03-05T01:44:28.414Z,3.10
2023-03-05T01:46:55.242Z,3.10
2023-03-05T01:49:28.230Z,3.10
2023-03-05T01:52:09.609Z,3.10
2023-03-05T01:54:44.768Z,3.10
2023-03-05T01:57:16.326Z,3.10
2023-03-05T01:59:45.809Z,3.10
2023-03-05T02:02:13.665Z,3.10
2023-03-05T02:04:48.224Z,3.00
2023-03-05T02:07:16.700Z,3.00
2023-03-05T02:09:43.613Z,3.00
2023-03-05T02:12:12.323Z,3.00
2023-03-05T02:14:41.244Z,3.00
2023-03-05T02:17:08.929Z,3.00
2023-03-05T02:19:55.632Z,3.00
2023-03-05T02:22:24.388Z,3.00
2023-03-05T02:24:52.235Z,3.00
2023-03-05T02:27:24.760Z,3.00
2023-03-05T02:29:52.674Z,3.00
2023-03-05T02:32:19.475Z,3.10
2023-03-05T02:34:46.356Z,3.00
2023-03-05T02:37:13.191Z,3.10
2023-03-05T02:39:40.023Z,3.10
2023-03-05T02:42:08.140Z,3.10
2023-03-05T02:44:35.664Z,3.10
2023-03-05T02:47:03.384Z,3.10
2023-03-05T02:49:31.255Z,3.10
2023-03-05T02:51:58.053Z,3.10
2023-03-05T02:54:24.899Z,3.10
2023-03-05T02:56:51.804Z,3.10
2023-03-05T02:59:18.835Z,3.10
2023-03-05T03:01:46.149Z,3.10
2023-03-05T03:04:13.005Z,3.10
2023-03-05T03:06:39.777Z,3.10
2023-03-05T03:09:06.601Z,3.10
2023-03-05T03:11:33.567Z,3.10
2023-03-05T03:14:00.580Z,3.10
2023-03-05T03:16:27.430Z,3.10
2023-03-05T03:18:54.257Z,3.10
2023-03-05T03:21:24.992Z,3.10
2023-03-05T03:23:51.891Z,3.10
2023-03-05T03:26:19.294Z,3.10
2023-03-05T03:28:46.265Z,3.20
2023-03-05T03:31:13.092Z,3.10
2023-03-05T03:33:40.114Z,3.20
2023-03-05T03:36:07.378Z,3.20
2023-03-05T03:38:34.218Z,3.20
2023-03-05T03:41:01.046Z,3.10
2023-03-05T03:43:28.015Z,3.20
2023-03-05T03:45:54.823Z,3.20
2023-03-05T03:48:21.648Z,3.20
2023-03-05T03:50:48.483Z,3.20
2023-03-05T03:53:17.380Z,3.20
2023-03-05T03:55:46.389Z,3.20
2023-03-05T03:58:13.523Z,3.20
2023-03-05T04:00:41.630Z,3.20
2023-03-05T04:03:09.019Z,3.20
2023-03-05T04:05:35.765Z,3.20
2023-03-05T04:08:03.550Z,3.20
2023-03-05T04:10:30.358Z,3.20
2023-03-05T04:12:57.100Z,3.20
2023-03-05T04:15:25.010Z,3.20
2023-03-05T04:17:51.953Z,3.10
2023-03-05T04:20:18.974Z,3.10
2023-03-05T04:22:45.743Z,3.10
2023-03-05T04:25:12.522Z,3.10
2023-03-05T04:27:40.411Z,3.10
2023-03-05T04:30:09.315Z,3.10
2023-03-05T04:32:36.207Z,3.10
2023-03-05T04:35:03.315Z,3.10
2023-03-05T04:37:30.072Z,3.10
2023-03-05T04:39:56.829Z,3.10
2023-03-05T04:42:23.711Z,3.10
2023-03-05T04:44:51.481Z,3.10
2023-03-05T04:47:19.069Z,3.10
2023-03-05T04:49:46.105Z,3.10
2023-03-05T04:52:13.682Z,3.10
2023-03-05T04:54:40.713Z,3.00
2023-03-05T04:57:07.773Z,3.00
2023-03-05T04:59:34.594Z,3.10
2023-03-05T05:02:01.371Z,3.10
2023-03-05T05:04:28.254Z,3.00
2023-03-05T05:06:58.878Z,3.00
2023-03-05T05:09:25.892Z,3.10
2023-03-05T05:11:52.647Z,3.10
2023-03-05T05:14:19.945Z,3.00
2023-03-05T05:16:46.713Z,3.00
2023-03-05T05:19:13.486Z,3.10
2023-03-05T05:21:40.266Z,3.00
2023-03-05T05:24:07.189Z,3.00
2023-03-05T05:26:33.957Z,3.00
2023-03-05T05:29:00.870Z,3.10
2023-03-05T05:31:27.715Z,3.10
2023-03-05T05:33:54.608Z,3.10
2023-03-05T05:36:22.356Z,3.10
2023-03-05T05:38:49.433Z,3.00
2023-03-05T05:41:18.361Z,3.10
2023-03-05T05:43:45.408Z,3.00
2023-03-05T05:46:18.533Z,3.00
2023-03-05T05:48:46.377Z,3.10
2023-03-05T05:51:15.910Z,3.00
2023-03-05T05:53:43.611Z,3.00
2023-03-05T05:56:11.506Z,3.10
2023-03-05T05:58:39.972Z,3.10
2023-03-05T06:01:39.341Z,3.10
2023-03-05T06:04:06.149Z,3.10
2023-03-05T06:06:34.876Z,3.10
2023-03-05T06:09:01.950Z,3.10
2023-03-05T06:11:29.500Z,3.10
2023-03-05T06:13:56.366Z,3.10
2023-03-05T06:16:24.772Z,3.10
2023-03-05T06:18:52.617Z,3.10
2023-03-05T06:21:21.712Z,3.10
2023-03-05T06:23:49.533Z,3.10
2023-03-05T06:26:18.845Z,3.10
2023-03-05T06:28:45.962Z,3.10
2023-03-05T06:31:18.991Z,3.10
2023-03-05T06:33:46.060Z,3.10
2023-03-05T06:36:16.018Z,3.10
2023-03-05T06:38:43.350Z,3.10
2023-03-05T06:41:16.208Z,3.10
2023-03-05T06:43:44.932Z,3.10
2023-03-05T06:46:20.529Z,3.10
2023-03-05T06:48:47.700Z,3.10
2023-03-05T06:51:14.634Z,3.20
2023-03-05T06:53:42.076Z,3.20
2023-03-05T06:56:09.686Z,3.20
2023-03-05T06:58:36.551Z,3.20
2023-03-05T07:01:07.279Z,3.20
2023-03-05T07:03:35.516Z,3.20
2023-03-05T07:06:06.888Z,3.20
2023-03-05T07:08:33.910Z,3.30
2023-03-05T07:11:01.114Z,3.30
2023-03-05T07:13:28.521Z,3.30
2023-03-05T07:15:55.469Z,3.30
2023-03-05T07:18:22.278Z,3.30
2023-03-05T07:20:49.070Z,3.30
2023-03-05T07:23:15.867Z,3.40
2023-03-05T07:25:42.641Z,3.40
2023-03-05T07:28:10.583Z,3.40
2023-03-05T07:30:37.659Z,3.40
2023-03-05T07:33:04.506Z,3.40
2023-03-05T07:35:31.294Z,3.40
2023-03-05T07:37:58.117Z,3.50
2023-03-05T07:40:24.914Z,3.50
2023-03-05T07:42:52.291Z,3.50
2023-03-05T07:45:28.718Z,3.60
2023-03-05T07:47:56.200Z,3.50
2023-03-05T07:50:23.125Z,3.60
2023-03-05T07:52:49.932Z,3.60
2023-03-05T07:55:16.819Z,3.60
2023-03-05T07:57:43.544Z,3.70
2023-03-05T08:00:11.014Z,3.60
2023-03-05T08:02:40.422Z,3.70
2023-03-05T08:05:08.519Z,3.70
2023-03-05T08:07:35.244Z,3.80
2023-03-05T08:10:02.065Z,3.80
2023-03-05T08:12:29.644Z,3.80
2023-03-05T08:14:56.426Z,3.80
2023-03-05T08:17:23.325Z,3.80
2023-03-05T08:19:50.066Z,3.80
2023-03-05T08:22:20.397Z,3.90
2023-03-05T08:24:47.248Z,3.90
2023-03-05T08:27:13.985Z,3.90
2023-03-05T08:29:40.755Z,3.90
2023-03-05T08:32:07.644Z,3.90
2023-03-05T08:34:35.048Z,3.90
2023-03-05T08:37:01.796Z,3.90
2023-03-05T08:39:30.187Z,3.90
2023-03-05T08:41:57.029Z,3.90
2023-03-05T08:44:23.791Z,4.00
2023-03-05T08:46:50.572Z,4.00
2023-03-05T08:49:17.420Z,4.00
2023-03-05T08:51:44.188Z,4.00
2023-03-05T08:54:11.025Z,4.00
2023-03-05T08:56:37.826Z,4.00
2023-03-05T08:59:05.560Z,4.10
2023-03-05T09:01:32.478Z,4.10
2023-03-05T09:04:00.224Z,4.10
2023-03-05T09:06:28.075Z,4.10
2023-03-05T09:08:55.391Z,4.20
2023-03-05T09:11:22.272Z,4.20
2023-03-05T09:13:49.270Z,4.30
2023-03-05T09:16:18.093Z,4.30
2023-03-05T09:18:45.820Z,4.30
2023-03-05T09:21:15.836Z,4.40
2023-03-05T09:23:43.943Z,4.40
2023-03-05T09:26:13.138Z,4.50
2023-03-05T09:28:40.381Z,4.60
2023-03-05T09:31:09.296Z,4.60
2023-03-05T09:33:36.807Z,4.70
2023-03-05T09:36:05.169Z,4.70
2023-03-05T09:38:32.418Z,4.70
2023-03-05T09:41:14.142Z,4.80
2023-03-05T09:43:53.237Z,4.80
2023-03-05T09:46:42.781Z,4.80
2023-03-05T09:49:17.926Z,4.90
2023-03-05T09:51:48.627Z,4.90
2023-03-05T09:54:44.108Z,4.90
2023-03-05T09:57:25.609Z,5.00
2023-03-05T09:59:59.418Z,5.00
2023-03-05T10:02:30.339Z,5.00
2023-03-05T10:05:15.213Z,5.00
2023-03-05T10:07:48.644Z,5.00
2023-03-05T10:10:24.714Z,5.00
2023-03-05T10:12:56.300Z,5.00
2023-03-05T10:15:31.856Z,5.10
2023-03-05T10:18:25.080Z,5.10
2023-03-05T10:21:03.416Z,5.10
2023-03-05T10:24:01.593Z,5.10
2023-03-05T10:26:54.819Z,5.10
2023-03-05T10:29:21.836Z,5.10
2023-03-05T10:31:54.060Z,5.10
2023-03-05T10:34:59.599Z,5.10
2023-03-05T10:37:47.083Z,5.10
2023-03-05T10:40:38.729Z,5.10
2023-03-05T10:43:15.491Z,5.10
2023-03-05T10:45:46.360Z,5.20
2023-03-05T10:48:49.074Z,5.10
2023-03-05T10:51:22.079Z,5.20
2023-03-05T10:54:04.865Z,5.20
2023-03-05T10:56:34.311Z,5.20
2023-03-05T10:59:01.148Z,5.10
2023-03-05T11:01:29.718Z,5.10
2023-03-05T11:03:58.846Z,5.10
2023-03-05T11:06:39.053Z,5.10
2023-03-05T11:09:29.656Z,5.10
2023-03-05T11:12:11.728Z,5.10
2023-03-05T11:14:42.005Z,5.10
2023-03-05T11:17:56.373Z,5.10
2023-03-05T11:20:29.051Z,5.00
2023-03-05T11:23:14.562Z,5.00
2023-03-05T11:26:01.931Z,5.00
2023-03-05T11:28:38.565Z,4.90
2023-03-05T11:31:18.338Z,4.90
2023-03-05T11:34:05.665Z,4.90
2023-03-05T11:36:36.508Z,4.90
2023-03-05T11:39:06.323Z,4.80
2023-03-05T11:41:39.712Z,4.80
2023-03-05T11:44:17.651Z,4.80
2023-03-05T11:46:49.576Z,4.80
2023-03-05T11:49:21.826Z,4.70
2023-03-05T11:51:59.989Z,4.70
2023-03-05T11:54:39.054Z,4.70
2023-03-05T11:57:10.839Z,4.70
2023-03-05T11:59:40.388Z,4.70
2023-03-05T12:02:24.640Z,4.70
2023-03-05T12:04:52.070Z,4.70
2023-03-05T12:07:46.703Z,4.80
2023-03-05T12:10:25.484Z,4.80
2023-03-05T12:13:01.737Z,4.80
2023-03-05T12:15:32.249Z,4.80
2023-03-05T12:18:05.395Z,4.80
2023-03-05T12:20:42.529Z,4.80
2023-03-05T12:23:17.919Z,4.70
2023-03-05T12:25:51.064Z,4.70
2023-03-05T12:28:41.764Z,4.70
2023-03-05T12:31:08.623Z,4.60
2023-03-05T12:33:39.765Z,4.70
2023-03-05T12:36:21.954Z,4.60
2023-03-05T12:38:56.562Z,4.60
2023-03-05T12:41:23.488Z,4.60
2023-03-05T12:44:25.991Z,4.60
2023-03-05T12:47:25.035Z,4.60
2023-03-05T12:49:51.894Z,4.60
2023-03-05T12:52:24.603Z,4.60
2023-03-05T12:55:22.618Z,4.60
2023-03-05T12:57:57.410Z,4.60
2023-03-05T13:01:01.965Z,4.60
2023-03-05T13:03:35.571Z,4.70
2023-03-05T13:06:06.568Z,4.70
2023-03-05T13:08:36.186Z,4.70
2023-03-05T13:11:06.657Z,4.70
2023-03-05T13:13:37.877Z,4.70
2023-03-05T13:16:05.392Z,4.70
2023-03-05T13:18:33.880Z,4.70
2023-03-05T13:21:02.689Z,4.70
2023-03-05T13:23:30.310Z,4.70
2023-03-05T13:26:01.520Z,4.70
2023-03-05T13:28:29.470Z,4.80
2023-03-05T13:31:02.853Z,4.80
2023-03-05T13:33:37.431Z,4.80
2023-03-05T13:36:06.199Z,4.80
2023-03-05T13:38:40.349Z,4.80
2023-03-05T13:41:16.170Z,4.80
2023-03-05T13:43:55.239Z,4.80
2023-03-05T13:46:39.267Z,4.90
2023-03-05T13:49:21.302Z,4.90
2023-03-05T13:51:56.750Z,4.90
2023-03-05T13:54:26.036Z,4.80
2023-03-05T13:56:58.814Z,4.80
2023-03-05T13:59:38.990Z,4.90
2023-03-05T14:02:20.513Z,4.80
2023-03-05T14:04:50.393Z,4.80
2023-03-05T14:07:35.912Z,4.80
2023-03-05T14:10:04.490Z,4.90
2023-03-05T14:12:43.498Z,4.90
2023-03-05T14:15:24.439Z,4.80
2023-03-05T14:17:51.674Z,4.90
2023-03-05T14:20:23.825Z,4.80
2023-03-05T14:23:31.752Z,4.80
2023-03-05T14:26:20.401Z,4.80
2023-03-05T14:28:56.765Z,4.80
2023-03-05T14:31:25.680Z,4.80
2023-03-05T14:34:01.198Z,4.80
2023-03-05T14:36:29.936Z,4.80
2023-03-05T14:38:56.948Z,4.70
2023-03-05T14:41:41.576Z,4.70
2023-03-05T14:44:19.889Z,4.70
2023-03-05T14:46:49.978Z,4.70
2023-03-05T14:49:17.321Z,4.70
2023-03-05T14:51:47.662Z,4.60
2023-03-05T14:54:24.060Z,4.60
2023-03-05T14:56:51.246Z,4.60
2023-03-05T14:59:20.989Z,4.60
2023-03-05T15:01:50.468Z,4.60
2023-03-05T15:04:19.754Z,4.60
2023-03-05T15:06:50.750Z,4.60
2023-03-05T15:09:19.762Z,4.60
2023-03-05T15:11:47.403Z,4.60
2023-03-05T15:14:14.222Z,4.60
2023-03-05T15:16:44.191Z,4.50
2023-03-05T15:19:13.822Z,4.50
2023-03-05T15:21:41.371Z,4.50
2023-03-05T15:24:10.167Z,4.50
2023-03-05T15:26:39.269Z,4.50
2023-03-05T15:29:06.166Z,4.50
2023-03-05T15:31:38.586Z,4.50
2023-03-05T15:34:06.342Z,4.50
2023-03-05T15:36:33.806Z,4.40
2023-03-05T15:39:00.844Z,4.40
2023-03-05T15:41:27.800Z,4.40
2023-03-05T15:43:54.697Z,4.40
2023-03-05T15:46:21.914Z,4.40
2023-03-05T15:48:50.224Z,4.40
2023-03-05T15:51:18.233Z,4.40
2023-03-05T15:53:46.326Z,4.40
2023-03-05T15:56:17.608Z,4.40
2023-03-05T15:58:44.548Z,4.40
2023-03-05T16:01:12.527Z,4.40
2023-03-05T16:03:39.608Z,4.40
2023-03-05T16:06:08.267Z,4.40
2023-03-05T16:08:36.708Z,4.40
2023-03-05T16:11:04.321Z,4.40
2023-03-05T16:13:32.607Z,4.40
2023-03-05T16:15:59.652Z,4.40
2023-03-05T16:18:27.360Z,4.40
2023-03-05T16:20:54.770Z,4.30
2023-03-05T16:23:24.026Z,4.40
2023-03-05T16:25:51.007Z,4.40
2023-03-05T16:28:17.818Z,4.40
2023-03-05T16:30:44.699Z,4.30
2023-03-05T16:33:11.626Z,4.30
2023-03-05T16:35:38.487Z,4.30
2023-03-05T16:38:08.448Z,4.30
2023-03-05T16:41:05.519Z,4.30
2023-03-05T16:43:24.912Z,4.30
2023-03-05T16:45:51.757Z,4.30
2023-03-05T16:48:18.603Z,4.30
2023-03-05T16:50:45.363Z,4.20
2023-03-05T16:53:14.382Z,4.20
2023-03-05T16:55:41.319Z,4.20
2023-03-05T16:58:08.053Z,4.20
2023-03-05T17:00:34.971Z,4.20
2023-03-05T17:03:01.785Z,4.20
2023-03-05T17:05:29.848Z,4.20
2023-03-05T17:07:56.964Z,4.20
2023-03-05T17:10:23.837Z,4.20
2023-03-05T17:12:52.691Z,4.20
2023-03-05T17:15:19.678Z,4.20
2023-03-05T17:17:46.454Z,4.20
2023-03-05T17:20:13.748Z,4.20
2023-03-05T17:22:40.824Z,4.20
2023-03-05T17:25:08.193Z,4.20
2023-03-05T17:27:37.151Z,4.20
2023-03-05T17:30:06.994Z,4.20
2023-03-05T17:32:34.425Z,4.20
2023-03-05T17:35:03.722Z,4.20
2023-03-05T17:37:31.368Z,4.20
2023-03-05T17:39:58.181Z,4.20
2023-03-05T17:42:25.080Z,4.20
2023-03-05T17:44:54.296Z,4.20
2023-03-05T17:47:22.521Z,4.20
2023-03-05T17:49:50.196Z,4.20
2023-03-05T17:52:18.190Z,4.20
2023-03-05T17:54:45.038Z,4.20
2023-03-05T17:57:11.835Z,4.20
2023-03-05T17:59:41.497Z,4.20
2023-03-05T18:02:09.447Z,4.20
2023-03-05T18:04:36.296Z,4.20
2023-03-05T18:07:05.808Z,4.20
2023-03-05T18:09:32.665Z,4.20
2023-03-05T18:11:59.676Z,4.20
2023-03-05T18:14:26.490Z,4.20
2023-03-05T18:16:54.757Z,4.10
2023-03-05T18:19:21.796Z,4.20
2023-03-05T18:21:50.639Z,4.10
2023-03-05T18:24:17.451Z,4.10
2023-03-05T18:26:44.390Z,4.20
2023-03-05T18:29:11.493Z,4.20
2023-03-05T18:31:38.282Z,4.10
2023-03-05T18:34:05.055Z,4.10
2023-03-05T18:36:32.535Z,4.10
2023-03-05T18:38:59.320Z,4.10
2023-03-05T18:41:28.229Z,4.10
2023-03-05T18:43:55.253Z,4.10
2023-03-05T18:46:22.220Z,4.10
2023-03-05T18:48:49.278Z,4.10
2023-03-05T18:51:19.858Z,4.10
2023-03-05T18:53:46.624Z,4.10
2023-03-05T18:56:14.155Z,4.10
2023-03-05T18:58:41.150Z,4.10
2023-03-05T19:01:09.243Z,4.10
2023-03-05T19:03:36.209Z,4.00
2023-03-05T19:06:06.726Z,4.10
2023-03-05T19:08:34.004Z,4.10
2023-03-05T19:11:01.008Z,4.10
2023-03-05T19:13:48.925Z,4.00
2023-03-05T19:16:29.396Z,4.00
2023-03-05T19:19:13.707Z,4.00
2023-03-05T19:21:47.459Z,4.10
2023-03-05T19:24:15.243Z,4.00
2023-03-05T19:26:43.132Z,4.00
2023-03-05T19:29:10.440Z,4.00
2023-03-05T19:31:38.209Z,4.10
2023-03-05T19:34:05.872Z,4.00
2023-03-05T19:36:34.431Z,4.00
2023-03-05T19:39:02.862Z,4.10
2023-03-05T19:41:29.811Z,4.10
2023-03-05T19:43:56.643Z,4.00
2023-03-05T19:46:23.679Z,4.00
2023-03-05T19:48:50.762Z,4.00
2023-03-05T19:51:23.142Z,4.00
2023-03-05T19:53:50.134Z,4.00
2023-03-05T19:56:17.630Z,4.00
2023-03-05T19:58:45.943Z,4.00
2023-03-05T20:01:26.109Z,4.00
2023-03-05T20:03:55.677Z,4.00
2023-03-05T20:06:23.904Z,4.00
2023-03-05T20:08:50.937Z,4.00
2023-03-05T20:11:19.210Z,4.00
2023-03-05T20:13:48.879Z,4.00
2023-03-05T20:16:25.164Z,4.00
2023-03-05T20:18:54.770Z,3.90
2023-03-05T20:21:24.060Z,4.00
2023-03-05T20:23:55.640Z,3.90
2023-03-05T20:26:23.470Z,3.90
2023-03-05T20:28:50.721Z,4.00
2023-03-05T20:31:23.253Z,4.00
2023-03-05T20:33:50.208Z,3.90
2023-03-05T20:36:17.202Z,4.00
2023-03-05T20:38:45.752Z,4.00
2023-03-05T20:41:15.379Z,3.90
2023-03-05T20:43:45.269Z,3.90
2023-03-05T20:46:27.544Z,3.90
2023-03-05T20:48:57.704Z,4.00
2023-03-05T20:51:29.800Z,4.00
2023-03-05T20:54:02.255Z,3.90
2023-03-05T20:56:32.348Z,3.90
2023-03-05T20:59:01.160Z,3.90
2023-03-05T21:01:32.838Z,3.90
2023-03-05T21:04:01.033Z,3.90
2023-03-05T21:06:29.667Z,3.90
2023-03-05T21:08:57.224Z,3.90
2023-03-05T21:11:24.328Z,3.90
2023-03-05T21:13:51.198Z,3.90
2023-03-05T21:16:24.355Z,3.90
2023-03-05T21:18:51.920Z,3.90
2023-03-05T21:21:19.502Z,3.90
2023-03-05T21:23:47.148Z,3.80
2023-03-05T21:26:15.777Z,3.90
2023-03-05T21:28:42.793Z,3.90
2023-03-05T21:31:15.200Z,3.90
2023-03-05T21:33:42.289Z,3.80
2023-03-05T21:36:09.263Z,3.80
2023-03-05T21:38:36.152Z,3.80
2023-03-05T21:41:03.788Z,3.80
2023-03-05T21:43:31.644Z,3.80
2023-03-05T21:46:01.202Z,3.80
2023-03-05T21:48:28.255Z,3.80
2023-03-05T21:50:55.628Z,3.80
2023-03-05T21:53:22.510Z,3.80
2023-03-05T21:56:05.295Z,3.80
2023-03-05T21:58:33.701Z,3.80
2023-03-05T22:01:00.815Z,3.80
2023-03-05T22:03:29.079Z,3.80
2023-03-05T22:05:56.950Z,3.80
2023-03-05T22:08:24.646Z,3.80
2023-03-05T22:10:55.884Z,3.80
2023-03-05T22:13:23.013Z,3.80
2023-03-05T22:15:54.754Z,3.80
2023-03-05T22:18:24.563Z,3.80
2023-03-05T22:20:52.370Z,3.80
2023-03-05T22:23:22.346Z,3.70
2023-03-05T22:26:15.853Z,3.70
2023-03-05T22:28:45.272Z,3.70
2023-03-05T22:31:18.879Z,3.70
2023-03-05T22:33:45.773Z,3.70
2023-03-05T22:36:13.486Z,3.70
2023-03-05T22:38:40.758Z,3.70
2023-03-05T22:41:09.471Z,3.70
2023-03-05T22:43:36.778Z,3.70
2023-03-05T22:46:29.782Z,3.70
2023-03-05T22:48:56.801Z,3.70
2023-03-05T22:51:23.667Z,3.70
2023-03-05T22:53:50.811Z,3.70
2023-03-05T22:56:19.724Z,3.70
2023-03-05T22:58:46.663Z,3.70
2023-03-05T23:01:15.578Z,3.70
2023-03-05T23:03:43.162Z,3.70
2023-03-05T23:06:10.383Z,3.60
2023-03-05T23:08:37.258Z,3.60
2023-03-05T23:11:09.335Z,3.60
2023-03-05T23:13:36.241Z,3.60
2023-03-05T23:16:03.193Z,3.60
2023-03-05T23:18:30.014Z,3.60
2023-03-05T23:20:56.866Z,3.60
2023-03-05T23:23:23.618Z,3.60
2023-03-05T23:25:52.146Z,3.60
2023-03-05T23:28:20.088Z,3.60
2023-03-05T23:30:47.059Z,3.60
2023-03-05T23:33:16.568Z,3.60
2023-03-05T23:35:56.716Z,3.60
2023-03-05T23:38:24.753Z,3.60
2023-03-05T23:40:54.001Z,3.60
2023-03-05T23:43:24.556Z,3.50
2023-03-05T23:45:54.968Z,3.60
2023-03-05T23:48:23.940Z,3.50
2023-03-05T23:50:51.170Z,3.50
2023-03-05T23:53:21.202Z,3.50
2023-03-05T23:55:48.658Z,3.50
2023-03-05T23:58:16.399Z,3.50
